METAR Data
IDs: Format: Raw Decoded Include TAF

Data at: 0905 UTC 07 Dec 2022

PAGK 070853Z AUTO 00000KT 6SM BR OVC014 M10/M12 A2942 RMK AO2 SNE45 SLP006 P0000 60000 T11001117 410891144 58008 TSNO